sensor_id;sensor_type;location;lat;lon;timestamp;temperature;humidity
25582;DHT22;13462;50.764;4.332;2022-08-18T00:02:00;17.40;99.90
25582;DHT22;13462;50.764;4.332;2022-08-18T00:04:26;17.50;99.90
25582;DHT22;13462;50.764;4.332;2022-08-18T00:06:52;17.40;99.90
25582;DHT22;13462;50.764;4.332;2022-08-18T00:09:17;17.40;99.90
25582;DHT22;13462;50.764;4.332;2022-08-18T00:11:43;17.40;99.90
25582;DHT22;13462;50.764;4.332;2022-08-18T00:14:13;17.30;99.90
25582;DHT22;13462;50.764;4.332;2022-08-18T00:16:39;17.30;99.90
25582;DHT22;13462;50.764;4.332;2022-08-18T00:19:05;17.30;99.90
25582;DHT22;13462;50.764;4.332;2022-08-18T00:21:32;17.10;99.90
25582;DHT22;13462;50.764;4.332;2022-08-18T00:23:58;17.10;99.90
25582;DHT22;13462;50.764;4.332;2022-08-18T00:26:24;17.10;99.90
25582;DHT22;13462;50.764;4.332;2022-08-18T00:28:50;17.10;99.90
25582;DHT22;13462;50.764;4.332;2022-08-18T00:31:15;17.30;99.90
25582;DHT22;13462;50.764;4.332;2022-08-18T00:33:44;17.40;99.90
25582;DHT22;13462;50.764;4.332;2022-08-18T00:36:11;17.50;99.90
25582;DHT22;13462;50.764;4.332;2022-08-18T00:38:37;17.30;99.90
25582;DHT22;13462;50.764;4.332;2022-08-18T00:41:03;17.30;99.90
25582;DHT22;13462;50.764;4.332;2022-08-18T00:43:41;17.30;99.90
25582;DHT22;13462;50.764;4.332;2022-08-18T00:46:20;17.20;99.90
25582;DHT22;13462;50.764;4.332;2022-08-18T00:48:47;17.20;99.90
25582;DHT22;13462;50.764;4.332;2022-08-18T00:51:25;17.20;99.90
25582;DHT22;13462;50.764;4.332;2022-08-18T00:54:02;17.40;99.90
25582;DHT22;13462;50.764;4.332;2022-08-18T00:56:43;17.30;99.90
25582;DHT22;13462;50.764;4.332;2022-08-18T01:01:42;17.20;99.90
25582;DHT22;13462;50.764;4.332;2022-08-18T01:04:15;17.20;99.90
25582;DHT22;13462;50.764;4.332;2022-08-18T01:06:47;17.50;99.90
25582;DHT22;13462;50.764;4.332;2022-08-18T01:09:16;17.70;99.90
25582;DHT22;13462;50.764;4.332;2022-08-18T01:11:42;17.80;99.90
25582;DHT22;13462;50.764;4.332;2022-08-18T01:14:09;17.80;99.90
25582;DHT22;13462;50.764;4.332;2022-08-18T01:16:41;17.80;99.90
25582;DHT22;13462;50.764;4.332;2022-08-18T01:19:26;17.80;99.90
25582;DHT22;13462;50.764;4.332;2022-08-18T01:24:49;17.50;99.90
25582;DHT22;13462;50.764;4.332;2022-08-18T01:27:34;17.60;99.90
25582;DHT22;13462;50.764;4.332;2022-08-18T01:30:08;17.60;99.90
25582;DHT22;13462;50.764;4.332;2022-08-18T01:32:35;17.70;99.90
25582;DHT22;13462;50.764;4.332;2022-08-18T01:35:02;17.80;99.90
25582;DHT22;13462;50.764;4.332;2022-08-18T01:37:28;17.90;99.90
25582;DHT22;13462;50.764;4.332;2022-08-18T01:39:54;17.80;99.90
25582;DHT22;13462;50.764;4.332;2022-08-18T01:42:21;17.80;99.90
25582;DHT22;13462;50.764;4.332;2022-08-18T01:44:47;17.80;99.90
25582;DHT22;13462;50.764;4.332;2022-08-18T01:47:16;17.80;99.90
25582;DHT22;13462;50.764;4.332;2022-08-18T01:49:43;17.70;99.90
25582;DHT22;13462;50.764;4.332;2022-08-18T01:52:14;17.80;99.90
25582;DHT22;13462;50.764;4.332;2022-08-18T01:54:42;17.80;99.90
25582;DHT22;13462;50.764;4.332;2022-08-18T01:57:08;17.80;99.90
25582;DHT22;13462;50.764;4.332;2022-08-18T01:59:38;17.90;99.90
25582;DHT22;13462;50.764;4.332;2022-08-18T02:02:04;18.00;99.90
25582;DHT22;13462;50.764;4.332;2022-08-18T02:04:32;18.00;99.90
25582;DHT22;13462;50.764;4.332;2022-08-18T02:06:59;18.10;99.90
25582;DHT22;13462;50.764;4.332;2022-08-18T02:09:27;18.10;99.90
25582;DHT22;13462;50.764;4.332;2022-08-18T02:11:53;18.00;99.90
25582;DHT22;13462;50.764;4.332;2022-08-18T02:14:19;17.90;99.90
25582;DHT22;13462;50.764;4.332;2022-08-18T02:16:45;18.00;99.90
25582;DHT22;13462;50.764;4.332;2022-08-18T02:19:10;18.10;99.90
25582;DHT22;13462;50.764;4.332;2022-08-18T02:21:37;18.20;99.90
25582;DHT22;13462;50.764;4.332;2022-08-18T02:24:03;18.10;99.90
25582;DHT22;13462;50.764;4.332;2022-08-18T02:26:29;18.20;99.90
25582;DHT22;13462;50.764;4.332;2022-08-18T02:28:55;18.40;99.90
25582;DHT22;13462;50.764;4.332;2022-08-18T02:31:23;18.30;99.90
25582;DHT22;13462;50.764;4.332;2022-08-18T02:33:49;18.20;99.90
25582;DHT22;13462;50.764;4.332;2022-08-18T02:36:16;18.20;99.90
25582;DHT22;13462;50.764;4.332;2022-08-18T02:38:42;18.10;99.90
25582;DHT22;13462;50.764;4.332;2022-08-18T02:41:10;18.00;99.90
25582;DHT22;13462;50.764;4.332;2022-08-18T02:43:37;18.10;99.90
25582;DHT22;13462;50.764;4.332;2022-08-18T02:46:03;18.00;99.90
25582;DHT22;13462;50.764;4.332;2022-08-18T02:48:30;18.00;99.90
25582;DHT22;13462;50.764;4.332;2022-08-18T02:51:06;18.20;99.90
25582;DHT22;13462;50.764;4.332;2022-08-18T02:53:34;18.20;99.90
25582;DHT22;13462;50.764;4.332;2022-08-18T02:56:12;18.20;99.90
25582;DHT22;13462;50.764;4.332;2022-08-18T02:58:55;18.20;99.90
25582;DHT22;13462;50.764;4.332;2022-08-18T03:01:28;18.30;99.90
25582;DHT22;13462;50.764;4.332;2022-08-18T03:03:55;18.30;99.90
25582;DHT22;13462;50.764;4.332;2022-08-18T03:06:22;18.30;99.90
25582;DHT22;13462;50.764;4.332;2022-08-18T03:08:48;18.30;99.90
25582;DHT22;13462;50.764;4.332;2022-08-18T03:11:21;18.20;99.90
25582;DHT22;13462;50.764;4.332;2022-08-18T03:13:47;18.30;99.90
25582;DHT22;13462;50.764;4.332;2022-08-18T03:16:13;18.30;99.90
25582;DHT22;13462;50.764;4.332;2022-08-18T03:18:40;18.40;99.90
25582;DHT22;13462;50.764;4.332;2022-08-18T03:21:08;18.60;99.90
25582;DHT22;13462;50.764;4.332;2022-08-18T03:23:35;18.50;99.90
25582;DHT22;13462;50.764;4.332;2022-08-18T03:26:03;18.50;99.90
25582;DHT22;13462;50.764;4.332;2022-08-18T03:28:29;18.40;99.90
25582;DHT22;13462;50.764;4.332;2022-08-18T03:30:55;18.40;99.90
25582;DHT22;13462;50.764;4.332;2022-08-18T03:33:21;18.40;99.90
25582;DHT22;13462;50.764;4.332;2022-08-18T03:35:47;18.30;99.90
25582;DHT22;13462;50.764;4.332;2022-08-18T03:38:23;18.20;99.90
25582;DHT22;13462;50.764;4.332;2022-08-18T03:40:52;18.20;99.90
25582;DHT22;13462;50.764;4.332;2022-08-18T03:43:18;18.10;99.90
25582;DHT22;13462;50.764;4.332;2022-08-18T03:45:44;18.10;99.90
25582;DHT22;13462;50.764;4.332;2022-08-18T03:48:11;18.20;99.90
25582;DHT22;13462;50.764;4.332;2022-08-18T03:50:37;18.10;99.90
25582;DHT22;13462;50.764;4.332;2022-08-18T03:53:03;18.20;99.90
25582;DHT22;13462;50.764;4.332;2022-08-18T03:55:30;18.20;99.90
25582;DHT22;13462;50.764;4.332;2022-08-18T03:57:58;18.30;99.90
25582;DHT22;13462;50.764;4.332;2022-08-18T04:00:30;18.30;99.90
25582;DHT22;13462;50.764;4.332;2022-08-18T04:02:57;18.30;99.90
25582;DHT22;13462;50.764;4.332;2022-08-18T04:05:25;18.40;99.90
25582;DHT22;13462;50.764;4.332;2022-08-18T04:07:51;18.40;99.90
25582;DHT22;13462;50.764;4.332;2022-08-18T04:10:19;18.40;99.90
25582;DHT22;13462;50.764;4.332;2022-08-18T04:12:44;18.40;99.90
25582;DHT22;13462;50.764;4.332;2022-08-18T04:15:10;18.40;99.90
25582;DHT22;13462;50.764;4.332;2022-08-18T04:17:36;18.50;99.90
25582;DHT22;13462;50.764;4.332;2022-08-18T04:20:03;18.50;99.90
25582;DHT22;13462;50.764;4.332;2022-08-18T04:22:29;18.40;99.90
25582;DHT22;13462;50.764;4.332;2022-08-18T04:24:58;18.50;99.90
25582;DHT22;13462;50.764;4.332;2022-08-18T04:27:26;18.50;99.90
25582;DHT22;13462;50.764;4.332;2022-08-18T04:29:52;18.40;99.90
25582;DHT22;13462;50.764;4.332;2022-08-18T04:32:21;18.50;99.90
25582;DHT22;13462;50.764;4.332;2022-08-18T04:34:47;18.70;99.90
25582;DHT22;13462;50.764;4.332;2022-08-18T04:37:14;18.60;99.90
25582;DHT22;13462;50.764;4.332;2022-08-18T04:39:41;18.70;99.90
25582;DHT22;13462;50.764;4.332;2022-08-18T04:42:07;18.60;99.90
25582;DHT22;13462;50.764;4.332;2022-08-18T04:44:34;18.40;99.90
25582;DHT22;13462;50.764;4.332;2022-08-18T04:47:03;18.50;99.90
25582;DHT22;13462;50.764;4.332;2022-08-18T04:49:29;18.70;99.90
25582;DHT22;13462;50.764;4.332;2022-08-18T04:51:57;18.70;99.90
25582;DHT22;13462;50.764;4.332;2022-08-18T04:54:41;18.80;99.90
25582;DHT22;13462;50.764;4.332;2022-08-18T04:57:15;18.70;99.90
25582;DHT22;13462;50.764;4.332;2022-08-18T04:59:46;18.60;99.90
25582;DHT22;13462;50.764;4.332;2022-08-18T05:02:13;18.70;99.90
25582;DHT22;13462;50.764;4.332;2022-08-18T05:04:41;18.60;99.90
25582;DHT22;13462;50.764;4.332;2022-08-18T05:07:08;18.60;99.90
25582;DHT22;13462;50.764;4.332;2022-08-18T05:09:36;18.60;99.90
25582;DHT22;13462;50.764;4.332;2022-08-18T05:12:03;18.80;99.90
25582;DHT22;13462;50.764;4.332;2022-08-18T05:14:29;18.70;99.90
25582;DHT22;13462;50.764;4.332;2022-08-18T05:17:03;18.80;99.90
25582;DHT22;13462;50.764;4.332;2022-08-18T05:19:29;19.00;99.90
25582;DHT22;13462;50.764;4.332;2022-08-18T05:21:57;18.80;99.90
25582;DHT22;13462;50.764;4.332;2022-08-18T05:24:24;18.80;99.90
25582;DHT22;13462;50.764;4.332;2022-08-18T05:26:51;18.80;99.90
25582;DHT22;13462;50.764;4.332;2022-08-18T05:29:19;18.80;99.90
25582;DHT22;13462;50.764;4.332;2022-08-18T05:31:49;18.90;99.90
25582;DHT22;13462;50.764;4.332;2022-08-18T05:34:17;18.90;99.90
25582;DHT22;13462;50.764;4.332;2022-08-18T05:41:57;18.80;99.90
25582;DHT22;13462;50.764;4.332;2022-08-18T05:44:28;18.90;99.90
25582;DHT22;13462;50.764;4.332;2022-08-18T05:47:05;18.80;99.90
25582;DHT22;13462;50.764;4.332;2022-08-18T05:49:33;18.80;99.90
25582;DHT22;13462;50.764;4.332;2022-08-18T05:52:02;18.90;99.90
25582;DHT22;13462;50.764;4.332;2022-08-18T05:54:37;19.10;99.90
25582;DHT22;13462;50.764;4.332;2022-08-18T05:57:24;19.40;99.90
25582;DHT22;13462;50.764;4.332;2022-08-18T05:59:53;19.60;99.90
25582;DHT22;13462;50.764;4.332;2022-08-18T06:02:32;19.70;99.90
25582;DHT22;13462;50.764;4.332;2022-08-18T06:05:03;19.80;99.90
25582;DHT22;13462;50.764;4.332;2022-08-18T06:07:44;19.90;99.90
25582;DHT22;13462;50.764;4.332;2022-08-18T06:10:11;19.90;99.90
25582;DHT22;13462;50.764;4.332;2022-08-18T06:12:46;20.00;99.90
25582;DHT22;13462;50.764;4.332;2022-08-18T06:20:49;19.90;99.90
25582;DHT22;13462;50.764;4.332;2022-08-18T06:23:47;19.90;99.90
25582;DHT22;13462;50.764;4.332;2022-08-18T06:37:51;19.30;99.90
25582;DHT22;13462;50.764;4.332;2022-08-18T06:40:39;19.50;99.90
25582;DHT22;13462;50.764;4.332;2022-08-18T06:43:09;19.80;99.90
25582;DHT22;13462;50.764;4.332;2022-08-18T06:45:38;20.00;99.90
25582;DHT22;13462;50.764;4.332;2022-08-18T06:48:15;20.20;99.90
25582;DHT22;13462;50.764;4.332;2022-08-18T06:50:48;20.30;99.90
25582;DHT22;13462;50.764;4.332;2022-08-18T06:53:14;20.20;99.90
25582;DHT22;13462;50.764;4.332;2022-08-18T06:55:44;20.50;99.90
25582;DHT22;13462;50.764;4.332;2022-08-18T07:06:03;20.90;99.90
25582;DHT22;13462;50.764;4.332;2022-08-18T07:08:42;21.10;99.90
25582;DHT22;13462;50.764;4.332;2022-08-18T07:13:53;21.20;99.90
25582;DHT22;13462;50.764;4.332;2022-08-18T07:16:30;21.20;99.90
25582;DHT22;13462;50.764;4.332;2022-08-18T07:19:09;21.20;99.90
25582;DHT22;13462;50.764;4.332;2022-08-18T07:21:37;21.30;99.90
25582;DHT22;13462;50.764;4.332;2022-08-18T07:24:08;21.50;99.90
25582;DHT22;13462;50.764;4.332;2022-08-18T07:27:01;21.70;99.90
25582;DHT22;13462;50.764;4.332;2022-08-18T07:29:29;21.90;99.90
25582;DHT22;13462;50.764;4.332;2022-08-18T07:32:00;22.20;99.90
25582;DHT22;13462;50.764;4.332;2022-08-18T07:34:29;22.50;99.90
25582;DHT22;13462;50.764;4.332;2022-08-18T07:37:05;22.80;99.90
25582;DHT22;13462;50.764;4.332;2022-08-18T07:39:39;22.70;99.90
25582;DHT22;13462;50.764;4.332;2022-08-18T07:42:16;23.10;99.90
25582;DHT22;13462;50.764;4.332;2022-08-18T07:44:59;23.70;99.90
25582;DHT22;13462;50.764;4.332;2022-08-18T07:47:33;24.10;99.90
25582;DHT22;13462;50.764;4.332;2022-08-18T07:50:02;24.60;99.90
25582;DHT22;13462;50.764;4.332;2022-08-18T07:52:31;24.70;99.90
25582;DHT22;13462;50.764;4.332;2022-08-18T07:55:06;24.90;99.90
25582;DHT22;13462;50.764;4.332;2022-08-18T08:00:41;27.20;99.90
25582;DHT22;13462;50.764;4.332;2022-08-18T08:03:24;28.90;99.90
25582;DHT22;13462;50.764;4.332;2022-08-18T08:06:11;29.40;99.90
25582;DHT22;13462;50.764;4.332;2022-08-18T08:08:59;28.70;99.90
25582;DHT22;13462;50.764;4.332;2022-08-18T08:11:52;28.30;99.90
25582;DHT22;13462;50.764;4.332;2022-08-18T08:14:38;27.50;99.90
25582;DHT22;13462;50.764;4.332;2022-08-18T08:17:11;27.60;99.90
25582;DHT22;13462;50.764;4.332;2022-08-18T08:27:46;33.60;90.50
25582;DHT22;13462;50.764;4.332;2022-08-18T08:30:17;35.10;86.80
25582;DHT22;13462;50.764;4.332;2022-08-18T08:35:33;36.60;76.60
25582;DHT22;13462;50.764;4.332;2022-08-18T08:38:11;35.80;76.30
25582;DHT22;13462;50.764;4.332;2022-08-18T08:43:15;37.10;73.60
25582;DHT22;13462;50.764;4.332;2022-08-18T08:45:51;37.60;70.70
25582;DHT22;13462;50.764;4.332;2022-08-18T08:48:24;37.60;69.30
25582;DHT22;13462;50.764;4.332;2022-08-18T08:53:58;37.60;68.30
25582;DHT22;13462;50.764;4.332;2022-08-18T08:56:30;37.80;69.50
25582;DHT22;13462;50.764;4.332;2022-08-18T08:59:10;37.10;69.70
25582;DHT22;13462;50.764;4.332;2022-08-18T09:10:29;36.50;71.10
25582;DHT22;13462;50.764;4.332;2022-08-18T09:13:25;37.20;69.50
25582;DHT22;13462;50.764;4.332;2022-08-18T09:16:08;37.70;67.40
25582;DHT22;13462;50.764;4.332;2022-08-18T09:21:53;36.50;70.20
25582;DHT22;13462;50.764;4.332;2022-08-18T09:24:28;35.50;73.60
25582;DHT22;13462;50.764;4.332;2022-08-18T09:40:14;33.40;74.30
25582;DHT22;13462;50.764;4.332;2022-08-18T09:43:51;32.10;77.50
25582;DHT22;13462;50.764;4.332;2022-08-18T09:46:05;31.40;81.90
25582;DHT22;13462;50.764;4.332;2022-08-18T09:48:41;31.70;79.60
25582;DHT22;13462;50.764;4.332;2022-08-18T10:02:05;37.70;65.50
25582;DHT22;13462;50.764;4.332;2022-08-18T10:04:36;37.30;66.30
25582;DHT22;13462;50.764;4.332;2022-08-18T10:10:11;34.40;72.20
25582;DHT22;13462;50.764;4.332;2022-08-18T10:15:31;31.70;77.70
25582;DHT22;13462;50.764;4.332;2022-08-18T10:18:27;30.90;78.50
25582;DHT22;13462;50.764;4.332;2022-08-18T10:21:06;30.80;82.60
25582;DHT22;13462;50.764;4.332;2022-08-18T10:24:31;31.80;78.10
25582;DHT22;13462;50.764;4.332;2022-08-18T10:28:58;35.20;72.50
25582;DHT22;13462;50.764;4.332;2022-08-18T10:31:26;35.40;69.50
25582;DHT22;13462;50.764;4.332;2022-08-18T10:39:22;32.70;75.70
25582;DHT22;13462;50.764;4.332;2022-08-18T10:41:57;31.80;78.70
25582;DHT22;13462;50.764;4.332;2022-08-18T10:44:26;31.40;80.20
25582;DHT22;13462;50.764;4.332;2022-08-18T10:46:52;32.40;79.80
25582;DHT22;13462;50.764;4.332;2022-08-18T10:49:22;33.80;73.50
25582;DHT22;13462;50.764;4.332;2022-08-18T10:55:12;33.20;72.40
25582;DHT22;13462;50.764;4.332;2022-08-18T10:58:08;32.90;72.60
25582;DHT22;13462;50.764;4.332;2022-08-18T11:03:47;31.40;77.00
25582;DHT22;13462;50.764;4.332;2022-08-18T11:06:21;30.90;79.60
25582;DHT22;13462;50.764;4.332;2022-08-18T11:08:51;30.20;81.50
25582;DHT22;13462;50.764;4.332;2022-08-18T11:11:28;30.00;82.70
25582;DHT22;13462;50.764;4.332;2022-08-18T11:16:52;29.80;82.20
25582;DHT22;13462;50.764;4.332;2022-08-18T11:19:20;31.20;79.70
25582;DHT22;13462;50.764;4.332;2022-08-18T11:21:48;32.30;78.30
25582;DHT22;13462;50.764;4.332;2022-08-18T11:24:18;33.30;74.40
25582;DHT22;13462;50.764;4.332;2022-08-18T11:26:58;34.50;69.80
25582;DHT22;13462;50.764;4.332;2022-08-18T11:29:34;35.00;69.40
25582;DHT22;13462;50.764;4.332;2022-08-18T11:32:18;35.30;65.90
25582;DHT22;13462;50.764;4.332;2022-08-18T11:35:20;36.30;65.50
25582;DHT22;13462;50.764;4.332;2022-08-18T11:40:19;36.70;62.00
25582;DHT22;13462;50.764;4.332;2022-08-18T11:43:02;36.00;64.80
25582;DHT22;13462;50.764;4.332;2022-08-18T11:45:29;35.50;66.90
25582;DHT22;13462;50.764;4.332;2022-08-18T11:48:31;35.00;67.00
25582;DHT22;13462;50.764;4.332;2022-08-18T11:51:01;34.10;70.50
25582;DHT22;13462;50.764;4.332;2022-08-18T11:53:51;33.50;71.00
25582;DHT22;13462;50.764;4.332;2022-08-18T11:56:22;33.50;72.00
25582;DHT22;13462;50.764;4.332;2022-08-18T11:59:31;33.80;70.60
25582;DHT22;13462;50.764;4.332;2022-08-18T12:01:47;34.60;69.50
25582;DHT22;13462;50.764;4.332;2022-08-18T12:04:27;35.10;67.10
25582;DHT22;13462;50.764;4.332;2022-08-18T12:09:37;35.90;67.10
25582;DHT22;13462;50.764;4.332;2022-08-18T12:12:26;36.40;63.10
25582;DHT22;13462;50.764;4.332;2022-08-18T12:14:57;37.20;61.80
25582;DHT22;13462;50.764;4.332;2022-08-18T12:17:25;38.20;60.00
25582;DHT22;13462;50.764;4.332;2022-08-18T12:19:51;38.30;59.90
25582;DHT22;13462;50.764;4.332;2022-08-18T12:22:26;38.90;59.50
25582;DHT22;13462;50.764;4.332;2022-08-18T12:24:53;39.30;57.20
25582;DHT22;13462;50.764;4.332;2022-08-18T12:27:21;39.70;57.40
25582;DHT22;13462;50.764;4.332;2022-08-18T12:29:49;38.90;56.70
25582;DHT22;13462;50.764;4.332;2022-08-18T12:32:16;38.20;58.40
25582;DHT22;13462;50.764;4.332;2022-08-18T12:34:42;37.80;59.60
25582;DHT22;13462;50.764;4.332;2022-08-18T12:37:09;38.00;59.10
25582;DHT22;13462;50.764;4.332;2022-08-18T12:39:35;38.00;58.90
25582;DHT22;13462;50.764;4.332;2022-08-18T12:42:01;37.60;57.40
25582;DHT22;13462;50.764;4.332;2022-08-18T12:44:27;36.40;60.20
25582;DHT22;13462;50.764;4.332;2022-08-18T12:46:53;37.10;58.80
25582;DHT22;13462;50.764;4.332;2022-08-18T12:49:21;37.40;60.40
25582;DHT22;13462;50.764;4.332;2022-08-18T12:51:48;37.80;58.50
25582;DHT22;13462;50.764;4.332;2022-08-18T12:54:15;38.60;57.50
25582;DHT22;13462;50.764;4.332;2022-08-18T12:56:41;38.60;54.50
25582;DHT22;13462;50.764;4.332;2022-08-18T12:59:09;37.60;54.40
25582;DHT22;13462;50.764;4.332;2022-08-18T13:01:39;37.60;55.10
25582;DHT22;13462;50.764;4.332;2022-08-18T13:04:05;37.70;55.10
25582;DHT22;13462;50.764;4.332;2022-08-18T13:06:33;37.50;55.00
25582;DHT22;13462;50.764;4.332;2022-08-18T13:09:00;37.10;55.10
25582;DHT22;13462;50.764;4.332;2022-08-18T13:11:25;37.20;54.20
25582;DHT22;13462;50.764;4.332;2022-08-18T13:13:52;36.70;58.20
25582;DHT22;13462;50.764;4.332;2022-08-18T13:16:18;36.90;57.50
25582;DHT22;13462;50.764;4.332;2022-08-18T13:18:44;37.10;56.00
25582;DHT22;13462;50.764;4.332;2022-08-18T13:21:13;37.10;56.50
25582;DHT22;13462;50.764;4.332;2022-08-18T13:23:39;37.40;57.90
25582;DHT22;13462;50.764;4.332;2022-08-18T13:26:07;37.80;57.60
25582;DHT22;13462;50.764;4.332;2022-08-18T13:28:35;37.40;56.40
25582;DHT22;13462;50.764;4.332;2022-08-18T13:31:01;37.90;57.30
25582;DHT22;13462;50.764;4.332;2022-08-18T13:33:27;37.90;55.80
25582;DHT22;13462;50.764;4.332;2022-08-18T13:35:53;37.70;54.70
25582;DHT22;13462;50.764;4.332;2022-08-18T13:38:20;37.50;56.50
25582;DHT22;13462;50.764;4.332;2022-08-18T13:40:55;37.50;56.00
25582;DHT22;13462;50.764;4.332;2022-08-18T13:43:28;37.70;57.70
25582;DHT22;13462;50.764;4.332;2022-08-18T13:45:54;37.70;57.00
25582;DHT22;13462;50.764;4.332;2022-08-18T13:48:20;37.80;55.80
25582;DHT22;13462;50.764;4.332;2022-08-18T13:50:46;37.40;56.10
25582;DHT22;13462;50.764;4.332;2022-08-18T13:53:14;37.20;55.20
25582;DHT22;13462;50.764;4.332;2022-08-18T13:55:44;36.60;57.60
25582;DHT22;13462;50.764;4.332;2022-08-18T13:58:10;35.90;57.50
25582;DHT22;13462;50.764;4.332;2022-08-18T14:00:37;36.20;59.40
25582;DHT22;13462;50.764;4.332;2022-08-18T14:03:04;36.00;56.50
25582;DHT22;13462;50.764;4.332;2022-08-18T14:05:31;35.60;57.40
25582;DHT22;13462;50.764;4.332;2022-08-18T14:07:58;35.20;59.00
25582;DHT22;13462;50.764;4.332;2022-08-18T14:10:24;35.20;58.20
25582;DHT22;13462;50.764;4.332;2022-08-18T14:12:53;34.80;57.50
25582;DHT22;13462;50.764;4.332;2022-08-18T14:15:20;34.80;57.40
25582;DHT22;13462;50.764;4.332;2022-08-18T14:17:48;34.70;59.30
25582;DHT22;13462;50.764;4.332;2022-08-18T14:20:14;34.50;59.20
25582;DHT22;13462;50.764;4.332;2022-08-18T14:22:59;34.00;60.90
25582;DHT22;13462;50.764;4.332;2022-08-18T14:25:43;33.90;64.00
25582;DHT22;13462;50.764;4.332;2022-08-18T14:28:29;33.80;63.20
25582;DHT22;13462;50.764;4.332;2022-08-18T14:31:01;33.60;64.10
25582;DHT22;13462;50.764;4.332;2022-08-18T14:33:29;33.50;64.60
25582;DHT22;13462;50.764;4.332;2022-08-18T14:35:55;33.40;65.00
25582;DHT22;13462;50.764;4.332;2022-08-18T14:38:21;33.00;65.90
25582;DHT22;13462;50.764;4.332;2022-08-18T14:40:47;32.70;67.70
25582;DHT22;13462;50.764;4.332;2022-08-18T14:43:16;32.10;67.30
25582;DHT22;13462;50.764;4.332;2022-08-18T14:45:46;31.90;69.00
25582;DHT22;13462;50.764;4.332;2022-08-18T14:48:18;31.90;68.50
25582;DHT22;13462;50.764;4.332;2022-08-18T14:50:47;31.60;69.30
25582;DHT22;13462;50.764;4.332;2022-08-18T14:53:15;32.00;68.20
25582;DHT22;13462;50.764;4.332;2022-08-18T14:55:41;32.20;69.10
25582;DHT22;13462;50.764;4.332;2022-08-18T14:58:07;32.10;66.90
25582;DHT22;13462;50.764;4.332;2022-08-18T15:00:34;32.30;68.20
25582;DHT22;13462;50.764;4.332;2022-08-18T15:03:00;32.60;67.10
25582;DHT22;13462;50.764;4.332;2022-08-18T15:05:26;32.60;67.30
25582;DHT22;13462;50.764;4.332;2022-08-18T15:07:57;32.60;66.30
25582;DHT22;13462;50.764;4.332;2022-08-18T15:10:23;32.50;67.50
25582;DHT22;13462;50.764;4.332;2022-08-18T15:12:50;32.40;66.60
25582;DHT22;13462;50.764;4.332;2022-08-18T15:15:17;32.10;67.20
25582;DHT22;13462;50.764;4.332;2022-08-18T15:17:43;31.80;66.80
25582;DHT22;13462;50.764;4.332;2022-08-18T15:20:10;31.80;68.50
25582;DHT22;13462;50.764;4.332;2022-08-18T15:22:43;31.60;67.70
25582;DHT22;13462;50.764;4.332;2022-08-18T15:25:29;31.40;67.70
25582;DHT22;13462;50.764;4.332;2022-08-18T15:28:11;31.20;68.40
25582;DHT22;13462;50.764;4.332;2022-08-18T15:30:44;31.10;68.60
25582;DHT22;13462;50.764;4.332;2022-08-18T15:33:10;30.90;68.10
25582;DHT22;13462;50.764;4.332;2022-08-18T15:35:36;30.60;70.40
25582;DHT22;13462;50.764;4.332;2022-08-18T15:38:04;30.60;68.10
25582;DHT22;13462;50.764;4.332;2022-08-18T15:40:31;30.40;68.80
25582;DHT22;13462;50.764;4.332;2022-08-18T15:42:59;30.30;68.00
25582;DHT22;13462;50.764;4.332;2022-08-18T15:45:34;30.40;67.80
25582;DHT22;13462;50.764;4.332;2022-08-18T15:48:03;30.50;68.00
25582;DHT22;13462;50.764;4.332;2022-08-18T15:50:29;30.50;69.80
25582;DHT22;13462;50.764;4.332;2022-08-18T15:52:58;30.60;70.40
25582;DHT22;13462;50.764;4.332;2022-08-18T15:55:26;30.40;72.10
25582;DHT22;13462;50.764;4.332;2022-08-18T15:57:53;30.50;70.00
25582;DHT22;13462;50.764;4.332;2022-08-18T16:00:20;30.70;71.20
25582;DHT22;13462;50.764;4.332;2022-08-18T16:02:54;30.80;69.60
25582;DHT22;13462;50.764;4.332;2022-08-18T16:05:31;30.70;71.00
25582;DHT22;13462;50.764;4.332;2022-08-18T16:07:58;30.70;72.70
25582;DHT22;13462;50.764;4.332;2022-08-18T16:10:28;30.80;73.70
25582;DHT22;13462;50.764;4.332;2022-08-18T16:12:55;30.70;73.50
25582;DHT22;13462;50.764;4.332;2022-08-18T16:15:24;30.80;72.50
25582;DHT22;13462;50.764;4.332;2022-08-18T16:17:52;30.70;75.30
25582;DHT22;13462;50.764;4.332;2022-08-18T16:20:20;30.50;73.70
25582;DHT22;13462;50.764;4.332;2022-08-18T16:22:48;30.30;76.10
25582;DHT22;13462;50.764;4.332;2022-08-18T16:25:15;30.40;76.00
25582;DHT22;13462;50.764;4.332;2022-08-18T16:27:42;30.20;76.10
25582;DHT22;13462;50.764;4.332;2022-08-18T16:30:14;30.00;76.30
25582;DHT22;13462;50.764;4.332;2022-08-18T16:32:40;29.90;76.00
25582;DHT22;13462;50.764;4.332;2022-08-18T16:35:07;29.80;76.60
25582;DHT22;13462;50.764;4.332;2022-08-18T16:37:33;29.80;76.80
25582;DHT22;13462;50.764;4.332;2022-08-18T16:39:59;29.80;77.00
25582;DHT22;13462;50.764;4.332;2022-08-18T16:42:25;29.70;77.30
25582;DHT22;13462;50.764;4.332;2022-08-18T16:44:54;29.70;77.40
25582;DHT22;13462;50.764;4.332;2022-08-18T16:47:20;29.60;79.50
25582;DHT22;13462;50.764;4.332;2022-08-18T16:49:46;29.50;79.00
25582;DHT22;13462;50.764;4.332;2022-08-18T16:52:33;29.40;77.40
25582;DHT22;13462;50.764;4.332;2022-08-18T16:55:00;29.40;77.80
25582;DHT22;13462;50.764;4.332;2022-08-18T16:57:26;29.30;78.20
25582;DHT22;13462;50.764;4.332;2022-08-18T17:00:10;29.40;77.70
25582;DHT22;13462;50.764;4.332;2022-08-18T17:02:55;29.20;77.20
25582;DHT22;13462;50.764;4.332;2022-08-18T17:05:39;29.10;77.60
25582;DHT22;13462;50.764;4.332;2022-08-18T17:08:05;29.00;78.60
25582;DHT22;13462;50.764;4.332;2022-08-18T17:10:31;28.80;78.40
25582;DHT22;13462;50.764;4.332;2022-08-18T17:13:03;28.60;77.70
25582;DHT22;13462;50.764;4.332;2022-08-18T17:15:30;28.60;79.50
25582;DHT22;13462;50.764;4.332;2022-08-18T17:17:58;28.50;79.80
25582;DHT22;13462;50.764;4.332;2022-08-18T17:20:26;28.50;78.80
25582;DHT22;13462;50.764;4.332;2022-08-18T17:22:52;28.30;80.70
25582;DHT22;13462;50.764;4.332;2022-08-18T17:25:21;28.20;81.00
25582;DHT22;13462;50.764;4.332;2022-08-18T17:27:49;27.90;80.20
25582;DHT22;13462;50.764;4.332;2022-08-18T17:30:17;27.90;80.50
25582;DHT22;13462;50.764;4.332;2022-08-18T17:32:47;27.70;81.80
25582;DHT22;13462;50.764;4.332;2022-08-18T17:35:36;27.50;83.20
25582;DHT22;13462;50.764;4.332;2022-08-18T17:38:21;27.40;82.50
25582;DHT22;13462;50.764;4.332;2022-08-18T17:40:50;27.10;82.30
25582;DHT22;13462;50.764;4.332;2022-08-18T17:43:19;27.10;83.40
25582;DHT22;13462;50.764;4.332;2022-08-18T17:45:53;27.10;82.40
25582;DHT22;13462;50.764;4.332;2022-08-18T17:48:38;27.00;84.70
25582;DHT22;13462;50.764;4.332;2022-08-18T17:51:10;26.90;84.10
25582;DHT22;13462;50.764;4.332;2022-08-18T17:53:57;26.90;84.70
25582;DHT22;13462;50.764;4.332;2022-08-18T17:56:52;26.80;85.00